createdAt,value
2022-10-17T00:00:03.081Z,100611.81
2022-10-17T00:02:29.403Z,100618.69
2022-10-17T00:04:55.762Z,100616.56
2022-10-17T00:07:22.112Z,100619.19
2022-10-17T00:09:48.457Z,100621.66
2022-10-17T00:12:14.798Z,100633.72
2022-10-17T00:14:41.295Z,100621.16
2022-10-17T00:17:07.680Z,100641.31
2022-10-17T00:19:34.168Z,100639.75
2022-10-17T00:22:00.496Z,100639.81
2022-10-17T00:24:26.903Z,100646.78
2022-10-17T00:26:53.247Z,100644.44
2022-10-17T00:29:19.592Z,100648.56
2022-10-17T00:31:45.991Z,100653.28
2022-10-17T00:34:12.394Z,100646.59
2022-10-17T00:36:38.815Z,100656.22
2022-10-17T00:39:05.242Z,100655.16
2022-10-17T00:41:33.655Z,100655.88
2022-10-17T00:44:01.718Z,100656.09
2022-10-17T00:46:34.600Z,100657.63
2022-10-17T00:49:06.783Z,100656.72
2022-10-17T00:51:45.106Z,100657.88
2022-10-17T00:54:14.582Z,100656.59
2022-10-17T00:56:41.294Z,100659.25
2022-10-17T00:59:10.775Z,100655.16
2022-10-17T01:01:37.310Z,100657.38
2022-10-17T01:04:03.844Z,100651.16
2022-10-17T01:06:30.338Z,100656.13
2022-10-17T01:08:56.870Z,100651.66
2022-10-17T01:11:41.980Z,100647.81
2022-10-17T01:14:31.516Z,100651.56
2022-10-17T01:17:39.343Z,100643.06
2022-10-17T01:20:37.239Z,100645.28
2022-10-17T01:23:09.484Z,100651.56
2022-10-17T01:26:07.367Z,100649.41
2022-10-17T01:29:01.036Z,100653.53
2022-10-17T01:31:39.457Z,100645.34
2022-10-17T01:34:19.666Z,100651.38
2022-10-17T01:37:02.718Z,100647.63
2022-10-17T01:39:49.927Z,100655.47
2022-10-17T01:42:28.879Z,100663.69
2022-10-17T01:45:11.672Z,100667.81
2022-10-17T01:47:39.770Z,100665.97
2022-10-17T01:50:13.762Z,100670.69
2022-10-17T01:52:47.072Z,100660.34
2022-10-17T01:55:28.382Z,100661.03
2022-10-17T01:58:00.973Z,100653.84
2022-10-17T02:00:28.213Z,100651.88
2022-10-17T02:03:01.946Z,100661.66
2022-10-17T02:05:33.463Z,100653.44
2022-10-17T02:07:59.781Z,100649.44
2022-10-17T02:10:38.222Z,100652.84
2022-10-17T02:13:09.516Z,100641.47
2022-10-17T02:15:52.345Z,100651.97
2022-10-17T02:18:41.627Z,100647.44
2022-10-17T02:21:46.177Z,100650.28
2022-10-17T02:24:32.656Z,100646.53
2022-10-17T02:27:38.167Z,100656.59
2022-10-17T02:30:12.638Z,100645.25
2022-10-17T02:32:54.553Z,100657.69
2022-10-17T02:35:25.253Z,100644.38
2022-10-17T02:37:53.284Z,100647.56
2022-10-17T02:40:22.768Z,100655.88
2022-10-17T02:42:51.274Z,100657.25
2022-10-17T02:45:17.987Z,100657.84
2022-10-17T02:47:50.647Z,100647.94
2022-10-17T02:50:18.243Z,100652.72
2022-10-17T02:53:01.231Z,100647.88
2022-10-17T02:55:34.126Z,100655.66
2022-10-17T02:58:06.932Z,100654.34
2022-10-17T03:00:34.631Z,100674.38
2022-10-17T03:03:01.005Z,100657.88
2022-10-17T03:05:29.508Z,100673.94
2022-10-17T03:07:56.873Z,100662.19
2022-10-17T03:10:23.633Z,100674.47
2022-10-17T03:12:50.054Z,100667.94
2022-10-17T03:15:16.552Z,100665.16
2022-10-17T03:17:42.970Z,100675.97
2022-10-17T03:20:09.779Z,100674.91
2022-10-17T03:22:36.199Z,100679.28
2022-10-17T03:25:02.628Z,100687.16
2022-10-17T03:27:29.241Z,100678.84
2022-10-17T03:29:55.746Z,100690.94
2022-10-17T03:32:22.159Z,100694.97
2022-10-17T03:34:48.521Z,100693.19
2022-10-17T03:37:14.895Z,100697.25
2022-10-17T03:39:41.230Z,100693.16
2022-10-17T03:42:07.658Z,100693.56
2022-10-17T03:44:34.017Z,100706.09
2022-10-17T03:47:00.498Z,100698.84
2022-10-17T03:49:26.841Z,100713.81
2022-10-17T03:51:53.189Z,100710.38
2022-10-17T03:54:19.509Z,100693.28
2022-10-17T03:56:45.942Z,100699.38
2022-10-17T03:59:14.390Z,100688.28
2022-10-17T04:01:41.245Z,100701.44
2022-10-17T04:04:08.544Z,100700.16
2022-10-17T04:06:35.667Z,100696.00
2022-10-17T04:09:02.593Z,100702.50
2022-10-17T04:11:29.629Z,100712.41
2022-10-17T04:13:57.586Z,100725.78
2022-10-17T04:16:24.317Z,100716.22
2022-10-17T04:18:58.571Z,100713.34
2022-10-17T04:21:27.082Z,100730.75
2022-10-17T04:23:58.433Z,100716.25
2022-10-17T04:26:25.367Z,100723.13
2022-10-17T04:28:51.902Z,100722.25
2022-10-17T04:31:18.860Z,100724.59
2022-10-17T04:33:49.367Z,100726.28
2022-10-17T04:36:18.758Z,100728.63
2022-10-17T04:38:45.224Z,100735.31
2022-10-17T04:41:14.809Z,100739.53
2022-10-17T04:43:43.428Z,100740.66
2022-10-17T04:46:13.523Z,100747.72
2022-10-17T04:48:40.777Z,100739.78
2022-10-17T04:51:15.490Z,100732.91
2022-10-17T04:53:42.936Z,100731.22
2022-10-17T04:56:15.395Z,100727.47
2022-10-17T04:58:42.860Z,100727.34
2022-10-17T05:01:12.364Z,100724.84
2022-10-17T05:03:38.871Z,100718.53
2022-10-17T05:06:06.957Z,100723.97
2022-10-17T05:08:33.739Z,100729.91
2022-10-17T05:13:32.631Z,100737.34
2022-10-17T05:16:00.754Z,100742.66
2022-10-17T05:18:28.308Z,100743.91
2022-10-17T05:20:54.973Z,100745.56
2022-10-17T05:23:21.407Z,100743.78
2022-10-17T05:25:47.739Z,100737.59
2022-10-17T05:28:14.075Z,100744.00
2022-10-17T05:30:40.547Z,100732.97
2022-10-17T05:33:06.910Z,100734.94
2022-10-17T05:35:33.270Z,100744.56
2022-10-17T05:38:00.497Z,100739.16
2022-10-17T05:40:26.930Z,100741.25
2022-10-17T05:42:53.282Z,100735.16
2022-10-17T05:45:19.739Z,100734.69
2022-10-17T05:47:46.111Z,100747.91
2022-10-17T05:50:12.541Z,100749.25
2022-10-17T05:52:38.894Z,100745.97
2022-10-17T05:55:06.056Z,100752.19
2022-10-17T05:57:32.428Z,100742.75
2022-10-17T05:59:58.785Z,100744.38
2022-10-17T06:02:25.335Z,100757.13
2022-10-17T06:04:51.824Z,100762.47
2022-10-17T06:07:18.215Z,100760.03
2022-10-17T06:12:15.943Z,100764.13
2022-10-17T06:14:42.271Z,100778.19
2022-10-17T06:17:13.453Z,100789.41
2022-10-17T06:19:42.120Z,100786.31
2022-10-17T06:22:08.519Z,100785.41
2022-10-17T06:24:34.905Z,100786.09
2022-10-17T06:27:01.424Z,100783.69
2022-10-17T06:29:27.805Z,100792.31
2022-10-17T06:31:54.370Z,100800.66
2022-10-17T06:34:21.094Z,100803.28
2022-10-17T06:36:47.867Z,100808.66
2022-10-17T06:39:14.515Z,100802.50
2022-10-17T06:41:41.615Z,100800.94
2022-10-17T06:44:11.077Z,100804.25
2022-10-17T06:46:38.501Z,100804.03
2022-10-17T06:49:05.090Z,100803.41
2022-10-17T06:51:32.195Z,100802.44
2022-10-17T06:53:59.127Z,100804.25
2022-10-17T06:56:25.578Z,100815.69
2022-10-17T06:58:52.879Z,100824.63
2022-10-17T07:01:19.253Z,100820.16
2022-10-17T07:03:48.918Z,100826.16
2022-10-17T07:06:15.627Z,100826.22
2022-10-17T07:08:45.977Z,100820.25
2022-10-17T07:11:14.928Z,100828.84
2022-10-17T07:13:42.151Z,100832.22
2022-10-17T07:16:09.369Z,100838.94
2022-10-17T07:18:35.854Z,100834.50
2022-10-17T07:21:03.692Z,100839.69
2022-10-17T07:23:30.329Z,100839.94
2022-10-17T07:26:17.137Z,100847.19
2022-10-17T07:28:45.326Z,100848.78
2022-10-17T07:31:17.557Z,100853.75
2022-10-17T07:36:17.527Z,100859.38
2022-10-17T07:38:44.327Z,100851.25
2022-10-17T07:41:12.072Z,100861.66
2022-10-17T07:43:38.927Z,100873.25
2022-10-17T07:46:05.868Z,100881.31
2022-10-17T07:48:32.497Z,100876.75
2022-10-17T07:51:02.497Z,100861.38
2022-10-17T07:53:28.978Z,100862.06
2022-10-17T07:55:55.359Z,100864.69
2022-10-17T07:58:21.738Z,100853.28
2022-10-17T08:00:51.201Z,100855.66
2022-10-17T08:03:17.770Z,100859.34
2022-10-17T08:05:44.261Z,100859.03
2022-10-17T08:08:10.625Z,100859.84
2022-10-17T08:10:37.052Z,100856.28
2022-10-17T08:13:03.466Z,100856.88
2022-10-17T08:15:31.853Z,100866.41
2022-10-17T08:17:59.128Z,100859.00
2022-10-17T08:20:25.563Z,100862.09
2022-10-17T08:22:55.714Z,100849.75
2022-10-17T08:25:23.238Z,100852.69
2022-10-17T08:27:50.037Z,100850.78
2022-10-17T08:30:17.071Z,100849.09
2022-10-17T08:32:43.564Z,100842.94
2022-10-17T08:35:10.289Z,100834.56
2022-10-17T08:37:36.868Z,100838.13
2022-10-17T08:40:04.222Z,100832.47
2022-10-17T08:43:08.600Z,100845.69
2022-10-17T08:45:53.159Z,100843.00
2022-10-17T08:48:24.163Z,100846.97
2022-10-17T08:50:57.804Z,100857.94
2022-10-17T08:53:49.579Z,100863.59
2022-10-17T08:56:44.189Z,100865.38
2022-10-17T08:59:30.326Z,100863.38
2022-10-17T09:02:14.873Z,100856.78
2022-10-17T09:04:41.241Z,100860.34
2022-10-17T09:07:33.899Z,100856.72
2022-10-17T09:10:28.748Z,100853.91
2022-10-17T09:13:19.269Z,100850.09
2022-10-17T09:16:19.328Z,100850.44
2022-10-17T09:19:23.144Z,100853.75
2022-10-17T09:21:56.112Z,100846.47
2022-10-17T09:24:52.827Z,100838.94
2022-10-17T09:27:40.476Z,100849.78
2022-10-17T09:30:44.228Z,100853.94
2022-10-17T09:33:28.184Z,100850.22
2022-10-17T09:36:04.186Z,100844.31
2022-10-17T09:38:39.179Z,100855.47
2022-10-17T09:41:39.241Z,100857.84
2022-10-17T09:44:13.856Z,100853.38
2022-10-17T09:46:40.353Z,100865.38
2022-10-17T09:49:18.734Z,100862.72
2022-10-17T09:51:45.278Z,100862.53
2022-10-17T09:54:26.822Z,100870.97
2022-10-17T09:57:02.751Z,100880.94
2022-10-17T09:59:38.680Z,100872.75
2022-10-17T10:02:13.717Z,100877.34
2022-10-17T10:05:21.780Z,100877.75
2022-10-17T10:08:14.187Z,100884.88
2022-10-17T10:10:43.992Z,100885.38
2022-10-17T10:13:22.263Z,100899.13
2022-10-17T10:15:50.491Z,100886.97
2022-10-17T10:18:26.060Z,100891.91
2022-10-17T10:21:20.220Z,100896.84
2022-10-17T10:24:03.338Z,100900.44
2022-10-17T10:26:46.991Z,100902.19
2022-10-17T10:29:34.145Z,100899.31
2022-10-17T10:32:22.177Z,100893.88
2022-10-17T10:34:56.557Z,100886.34
2022-10-17T10:37:29.609Z,100891.66
2022-10-17T10:40:27.305Z,100890.13
2022-10-17T10:43:01.281Z,100885.59
2022-10-17T10:45:52.828Z,100886.69
2022-10-17T10:48:27.838Z,100888.69
2022-10-17T10:51:14.383Z,100885.06
2022-10-17T10:54:11.590Z,100882.50
2022-10-17T10:56:43.684Z,100884.16
2022-10-17T10:59:28.598Z,100886.06
2022-10-17T11:02:00.044Z,100889.72
2022-10-17T11:04:44.860Z,100894.84
2022-10-17T11:07:17.596Z,100902.25
2022-10-17T11:10:05.849Z,100898.91
2022-10-17T11:12:45.522Z,100897.09
2022-10-17T11:15:30.355Z,100887.91
2022-10-17T11:18:03.633Z,100892.22
2022-10-17T11:20:43.455Z,100893.78
2022-10-17T11:23:24.682Z,100890.38
2022-10-17T11:25:53.348Z,100898.41
2022-10-17T11:28:23.046Z,100902.66
2022-10-17T11:30:58.859Z,100902.84
2022-10-17T11:33:55.959Z,100897.66
2022-10-17T11:36:28.080Z,100901.56
2022-10-17T11:39:00.019Z,100896.13
2022-10-17T11:41:46.283Z,100897.22
2022-10-17T11:44:35.149Z,100890.34
2022-10-17T11:47:32.862Z,100897.38
2022-10-17T11:53:24.258Z,100908.94
2022-10-17T11:55:53.337Z,100898.69
2022-10-17T11:58:22.545Z,100900.84
2022-10-17T12:01:13.270Z,100908.13
2022-10-17T12:03:51.742Z,100911.16
2022-10-17T12:06:44.237Z,100911.19
2022-10-17T12:09:33.702Z,100915.72
2022-10-17T12:12:02.460Z,100909.56
2022-10-17T12:14:45.014Z,100914.66
2022-10-17T12:17:40.339Z,100913.66
2022-10-17T12:20:24.870Z,100916.38
2022-10-17T12:23:06.331Z,100908.81
2022-10-17T12:25:35.306Z,100905.66
2022-10-17T12:28:25.983Z,100914.25
2022-10-17T12:31:02.601Z,100904.50
2022-10-17T12:33:38.843Z,100897.41
2022-10-17T12:36:17.438Z,100900.00
2022-10-17T12:38:52.554Z,100899.69
2022-10-17T12:41:38.030Z,100902.19
2022-10-17T12:44:13.557Z,100899.72
2022-10-17T12:46:44.845Z,100897.63
2022-10-17T12:49:29.861Z,100878.88
2022-10-17T12:52:16.685Z,100887.97
2022-10-17T12:55:00.507Z,100895.09
2022-10-17T12:57:51.437Z,100885.78
2022-10-17T13:01:19.130Z,100895.19
2022-10-17T13:03:46.171Z,100892.06
2022-10-17T13:06:21.069Z,100895.41
2022-10-17T13:08:55.544Z,100902.34
2022-10-17T13:11:27.472Z,100900.56
2022-10-17T13:13:57.258Z,100903.03
2022-10-17T13:16:36.178Z,100906.19
2022-10-17T13:19:11.762Z,100905.25
2022-10-17T13:21:38.124Z,100906.38
2022-10-17T13:24:21.918Z,100904.09
2022-10-17T13:26:48.296Z,100904.03
2022-10-17T13:29:15.885Z,100916.41
2022-10-17T13:31:44.218Z,100900.53
2022-10-17T13:34:19.434Z,100912.69
2022-10-17T13:36:48.901Z,100910.53
2022-10-17T13:39:23.177Z,100917.41
2022-10-17T13:41:59.412Z,100917.34
2022-10-17T13:44:28.788Z,100916.13
2022-10-17T13:46:55.373Z,100922.38
2022-10-17T13:49:35.139Z,100924.00
2022-10-17T13:52:04.778Z,100923.25
2022-10-17T13:54:37.260Z,100929.19
2022-10-17T13:57:04.764Z,100923.00
2022-10-17T13:59:40.258Z,100925.31
2022-10-17T14:02:15.246Z,100924.66
2022-10-17T14:05:11.631Z,100936.84
2022-10-17T14:08:05.665Z,100922.88
2022-10-17T14:10:30.476Z,100931.94
2022-10-17T14:12:57.850Z,100924.88
2022-10-17T14:15:29.777Z,100924.97
2022-10-17T14:18:07.819Z,100935.09
2022-10-17T14:23:35.528Z,100938.84
2022-10-17T14:26:21.484Z,100939.47
2022-10-17T14:29:07.026Z,100941.00
2022-10-17T14:31:36.301Z,100938.88
2022-10-17T14:34:04.856Z,100938.88
2022-10-17T14:36:37.531Z,100939.13
2022-10-17T14:39:18.216Z,100944.06
2022-10-17T14:41:46.974Z,100940.25
2022-10-17T14:44:22.822Z,100939.50
2022-10-17T14:46:54.206Z,100938.44
2022-10-17T14:49:28.600Z,100940.28
2022-10-17T14:52:29.007Z,100936.47
2022-10-17T14:54:56.984Z,100943.28
2022-10-17T14:57:23.289Z,100941.53
2022-10-17T14:59:54.830Z,100948.09
2022-10-17T15:02:25.774Z,100948.66
2022-10-17T15:04:52.917Z,100949.91
2022-10-17T15:07:21.049Z,100950.53
2022-10-17T15:09:49.043Z,100958.28
2022-10-17T15:12:18.509Z,100959.81
2022-10-17T15:14:45.639Z,100965.16
2022-10-17T15:17:20.620Z,100969.06
2022-10-17T15:19:47.880Z,100968.09
2022-10-17T15:22:15.965Z,100957.78
2022-10-17T15:24:42.893Z,100970.25
2022-10-17T15:27:15.624Z,100970.78
2022-10-17T15:29:42.009Z,100969.38
2022-10-17T15:32:08.446Z,100972.97
2022-10-17T15:34:34.799Z,100969.06
2022-10-17T15:37:01.233Z,100976.44
2022-10-17T15:39:27.590Z,100972.72
2022-10-17T15:41:53.914Z,100974.91
2022-10-17T15:44:20.243Z,100974.56
2022-10-17T15:46:46.669Z,100972.50
2022-10-17T15:49:17.170Z,100978.13
2022-10-17T15:51:44.140Z,100973.56
2022-10-17T15:54:10.487Z,100972.47
2022-10-17T15:56:42.158Z,100972.94
2022-10-17T15:59:18.313Z,100983.81
2022-10-17T16:01:45.029Z,100984.22
2022-10-17T16:04:13.045Z,100977.34
2022-10-17T16:06:39.493Z,100981.03
2022-10-17T16:09:05.842Z,100993.50
2022-10-17T16:11:39.712Z,100988.31
2022-10-17T16:14:14.872Z,100996.97
2022-10-17T16:16:41.925Z,101001.25
2022-10-17T16:19:09.003Z,100995.16
2022-10-17T16:21:38.793Z,101003.56
2022-10-17T16:24:06.210Z,101004.63
2022-10-17T16:26:32.912Z,100996.50
2022-10-17T16:29:02.780Z,101006.78
2022-10-17T16:31:34.670Z,101012.63
2022-10-17T16:34:03.011Z,101013.72
2022-10-17T16:36:29.886Z,101020.25
2022-10-17T16:38:56.300Z,101015.63
2022-10-17T16:41:29.290Z,101017.03
2022-10-17T16:43:58.436Z,101028.09
2022-10-17T16:46:26.286Z,101022.16
2022-10-17T16:48:52.742Z,101019.50
2022-10-17T16:51:20.335Z,101020.31
2022-10-17T16:53:49.995Z,101032.59
2022-10-17T16:56:19.309Z,101037.53
2022-10-17T16:58:46.447Z,101034.53
2022-10-17T17:01:22.411Z,101038.22
2022-10-17T17:03:49.825Z,101044.38
2022-10-17T17:06:19.517Z,101046.31
2022-10-17T17:08:46.117Z,101053.63
2022-10-17T17:11:14.571Z,101047.25
2022-10-17T17:13:41.318Z,101041.00
2022-10-17T17:16:09.919Z,101037.91
2022-10-17T17:18:36.521Z,101037.72
2022-10-17T17:21:05.451Z,101034.09
2022-10-17T17:23:34.827Z,101034.53
2022-10-17T17:26:07.175Z,101037.56
2022-10-17T17:28:34.962Z,101033.91
2022-10-17T17:31:01.786Z,101037.56
2022-10-17T17:33:29.942Z,101041.38
2022-10-17T17:35:58.594Z,101049.88
2022-10-17T17:38:24.943Z,101042.94
2022-10-17T17:40:51.690Z,101041.16
2022-10-17T17:43:18.905Z,101046.66
2022-10-17T17:45:45.475Z,101043.94
2022-10-17T17:48:12.323Z,101059.88
2022-10-17T17:50:40.160Z,101061.31
2022-10-17T17:53:07.831Z,101069.19
2022-10-17T17:55:34.353Z,101077.50
2022-10-17T17:58:00.717Z,101076.75
2022-10-17T18:00:27.477Z,101079.16
2022-10-17T18:02:54.026Z,101081.75
2022-10-17T18:05:20.478Z,101089.00
2022-10-17T18:07:46.869Z,101085.59
2022-10-17T18:12:41.940Z,101093.09
2022-10-17T18:15:08.576Z,101095.00
2022-10-17T18:17:35.030Z,101096.75
2022-10-17T18:20:02.651Z,101099.19
2022-10-17T18:22:29.404Z,101104.22
2022-10-17T18:24:56.006Z,101099.25
2022-10-17T18:27:22.421Z,101099.91
2022-10-17T18:29:48.792Z,101101.72
2022-10-17T18:32:15.288Z,101101.53
2022-10-17T18:34:42.438Z,101101.38
2022-10-17T18:37:08.995Z,101098.91
2022-10-17T18:39:35.685Z,101091.56
2022-10-17T18:42:02.033Z,101095.78
2022-10-17T18:44:28.381Z,101098.91
2022-10-17T18:46:58.543Z,101100.38
2022-10-17T18:49:27.900Z,101102.19
2022-10-17T18:51:54.357Z,101096.16
2022-10-17T18:54:22.128Z,101086.03
2022-10-17T18:56:56.732Z,101092.09
2022-10-17T18:59:23.287Z,101093.94
2022-10-17T19:01:49.860Z,101096.31
2022-10-17T19:04:16.603Z,101099.22
2022-10-17T19:06:43.537Z,101095.94
2022-10-17T19:09:11.870Z,101091.56
2022-10-17T19:11:39.103Z,101105.44
2022-10-17T19:14:12.821Z,101094.22
2022-10-17T19:16:45.494Z,101097.28
2022-10-17T19:19:15.207Z,101092.47
2022-10-17T19:21:42.393Z,101092.59
2022-10-17T19:24:12.997Z,101098.91
2022-10-17T19:26:40.088Z,101094.44
2022-10-17T19:29:10.754Z,101096.84
2022-10-17T19:31:37.162Z,101098.72
2022-10-17T19:34:04.358Z,101097.88
2022-10-17T19:36:34.007Z,101094.38
2022-10-17T19:39:06.107Z,101095.00
2022-10-17T19:41:32.715Z,101097.06
2022-10-17T19:44:00.101Z,101093.88
2022-10-17T19:46:32.851Z,101098.41
2022-10-17T19:49:00.095Z,101100.69
2022-10-17T19:51:27.094Z,101104.88
2022-10-17T19:53:54.955Z,101093.06
2022-10-17T19:56:22.547Z,101097.00
2022-10-17T19:58:49.841Z,101091.41
2022-10-17T20:01:28.672Z,101095.63
2022-10-17T20:03:55.982Z,101096.31
2022-10-17T20:06:23.406Z,101095.28
2022-10-17T20:08:50.026Z,101097.53
2022-10-17T20:11:20.694Z,101095.13
2022-10-17T20:13:47.311Z,101091.63
2022-10-17T20:16:21.269Z,101093.38
2022-10-17T20:18:52.309Z,101087.97
2022-10-17T20:21:22.920Z,101094.03
2022-10-17T20:23:50.519Z,101098.75
2022-10-17T20:26:37.669Z,101101.31
2022-10-17T20:29:10.422Z,101092.75
2022-10-17T20:31:37.072Z,101093.59
2022-10-17T20:34:03.941Z,101101.84
2022-10-17T20:36:30.612Z,101092.66
2022-10-17T20:38:58.868Z,101099.94
2022-10-17T20:41:26.682Z,101100.44
2022-10-17T20:43:54.758Z,101114.00
2022-10-17T20:46:35.459Z,101111.72
2022-10-17T20:49:04.220Z,101104.91
2022-10-17T20:51:30.824Z,101108.91
2022-10-17T20:56:30.548Z,101096.47
2022-10-17T20:58:59.691Z,101099.59
2022-10-17T21:01:27.469Z,101103.19
2022-10-17T21:03:54.157Z,101101.69
2022-10-17T21:06:21.855Z,101106.53
2022-10-17T21:08:49.049Z,101109.84
2022-10-17T21:11:20.546Z,101100.25
2022-10-17T21:13:48.031Z,101112.63
2022-10-17T21:16:18.211Z,101110.66
2022-10-17T21:18:45.632Z,101119.75
2022-10-17T21:21:19.383Z,101116.97
2022-10-17T21:23:48.115Z,101113.09
2022-10-17T21:26:15.541Z,101112.91
2022-10-17T21:28:43.992Z,101114.22
2022-10-17T21:31:24.862Z,101122.22
2022-10-17T21:33:54.357Z,101128.31
2022-10-17T21:36:22.217Z,101128.38
2022-10-17T21:38:50.225Z,101129.50
2022-10-17T21:41:19.608Z,101113.66
2022-10-17T21:43:46.898Z,101120.47
2022-10-17T21:46:17.305Z,101124.38
2022-10-17T21:48:44.872Z,101124.31
2022-10-17T21:51:16.567Z,101122.56
2022-10-17T21:53:43.503Z,101131.31
2022-10-17T21:56:13.452Z,101138.38
2022-10-17T21:58:40.246Z,101141.53
2022-10-17T22:01:09.735Z,101123.63
2022-10-17T22:03:42.626Z,101125.13
2022-10-17T22:09:00.498Z,101124.50
2022-10-17T22:11:30.224Z,101125.69
2022-10-17T22:14:03.934Z,101113.34
2022-10-17T22:16:31.020Z,101109.09
2022-10-17T22:19:06.148Z,101107.59
2022-10-17T22:21:34.535Z,101108.38
2022-10-17T22:24:05.407Z,101110.44
2022-10-17T22:26:33.632Z,101109.75
2022-10-17T22:29:00.237Z,101113.31
2022-10-17T22:31:26.685Z,101110.50
2022-10-17T22:33:53.117Z,101114.41
2022-10-17T22:36:19.510Z,101109.19
2022-10-17T22:38:45.855Z,101116.16
2022-10-17T22:41:12.252Z,101116.16
2022-10-17T22:43:38.614Z,101106.84
2022-10-17T22:46:06.775Z,101110.34
2022-10-17T22:48:33.910Z,101119.69
2022-10-17T22:51:01.470Z,101119.72
2022-10-17T22:53:29.383Z,101110.13
2022-10-17T22:55:58.801Z,101100.34
2022-10-17T22:58:26.213Z,101101.47
2022-10-17T23:00:53.105Z,101094.25
2022-10-17T23:03:21.225Z,101102.72
2022-10-17T23:05:48.014Z,101099.75
2022-10-17T23:08:15.380Z,101107.28
2022-10-17T23:10:41.778Z,101094.63
2022-10-17T23:13:08.110Z,101099.16
2022-10-17T23:15:35.059Z,101110.34
2022-10-17T23:18:02.435Z,101100.53
2022-10-17T23:20:30.231Z,101109.19
2022-10-17T23:22:57.482Z,101099.09
2022-10-17T23:25:24.453Z,101089.59
2022-10-17T23:27:50.832Z,101088.44
2022-10-17T23:30:17.507Z,101087.47
2022-10-17T23:32:43.894Z,101085.53
2022-10-17T23:35:10.705Z,101086.78
2022-10-17T23:37:37.766Z,101087.78
2022-10-17T23:40:05.297Z,101079.94
2022-10-17T23:42:31.718Z,101082.25
2022-10-17T23:44:58.078Z,101091.88
2022-10-17T23:47:24.469Z,101089.47
2022-10-17T23:49:50.895Z,101076.38
2022-10-17T23:52:17.292Z,101075.22
2022-10-17T23:54:43.653Z,101073.81
2022-10-17T23:57:09.991Z,101069.25
2022-10-17T23:59:36.316Z,101066.06
